Hlavní strana
METAR-TAF:

METAR-TAF

Letiště :

Halifax, Nové Skotsko, Kanada

zeměpisná šířka: 44-53N, zeměpisná délka: 063-30W, výška: 145 m

Aktuální stav počasí

Zpráva byla vytvořena před 33 minutami, v 13:00 UTC
Severozápadní vítr 8 kt
Teplota 7°C
Vlhkost vzduchu 42%
Tlak 1028 hPa
Viditelnost: 24.1 km
Jasno

METAR: CYHZ 231300Z 31008KT 15SM SKC 07/M05 A3035 RMK SLP283

Čas: 10:33 (13:33 UTC)

Předpověď počasí

Zpráva byla vytvořena před 1 hodinou a 55 minutami, v 11:38 UTC
Předpověď platná od 23 v 12 UTC do 24 v 12 UTC
Severozápadní vítr 8 kt
Viditelnost: 10 km
Jasno
Změna
od 24 v 00 UTC do 24 v 02 UTC
Jihozápadní vítr 5 kt

TAF: CYHZ 231138Z 2312/2412 31008KT P6SM SKC BECMG 2400/2402 23005KT RMK NXT FCST BY 231500Z

Stav a předpovědi počasí z více než 4 000 letišť (zprávy METAR a TAF).

Červené a žluté tečky na mapě představují dostupné meteorologické stanice.

Když kurzor umístíte na tečku, zobrazí se název stanice.

Pak kliknutím zobrazíte stav a předpověď počasí.

Chcete-li změnit mapu, kliknutím na zelené tlačítko se znaménkem +mapu přiblížíte, kliknutím na zelené tlačítko se znaménkem – mapu oddálíte a kliknutím na zelené šipky přejdete na sousední mapy.


METAR-TAF: